Time;durP1;ratioP1;P1;durP2;ratioP2;P2;SDS_P1;SDS_P2;PMS_P1;PMS_P2;Temp;Humidity;BMP_temperature;BMP_pressure;BME280_temperature;BME280_humidity;BME280_pressure;Samples;Min_cycle;Max_cycle;Signal;HPM_P1;HPM_P2
2022/03/26 00:01:43;;;;;;;511.50;304.23;;;;;;;5.25;62.98;99718.16;4988684;28;20041;-57
2022/03/26 00:04:08;;;;;;;492.87;292.33;;;;;;;5.17;63.92;99709.53;4991798;28;20137;-56
2022/03/26 00:06:34;;;;;;;488.30;250.37;;;;;;;4.97;64.50;99693.00;4993762;28;20456;-57
2022/03/26 00:08:59;;;;;;;506.30;279.00;;;;;;;4.94;67.03;99709.06;4990373;28;20510;-55
2022/03/26 00:11:25;;;;;;;489.43;295.57;;;;;;;4.81;67.47;99698.59;4989454;28;20068;-57
2022/03/26 00:13:50;;;;;;;498.43;293.40;;;;;;;4.87;66.49;99714.00;4991156;28;20076;-59
2022/03/26 00:16:16;;;;;;;476.07;296.13;;;;;;;4.62;67.23;99692.28;4992913;28;20072;-56
2022/03/26 00:18:41;;;;;;;507.40;290.37;;;;;;;4.73;68.89;99723.00;4990033;28;20428;-57
2022/03/26 00:21:07;;;;;;;498.57;292.73;;;;;;;4.65;69.96;99721.97;4989472;28;20120;-56
2022/03/26 00:23:33;;;;;;;504.07;268.27;;;;;;;4.93;66.91;99719.19;4992461;28;20034;-55
2022/03/26 00:25:59;;;;;;;500.80;282.67;;;;;;;5.16;64.95;99723.06;4991852;28;20041;-56
2022/03/26 00:28:25;;;;;;;496.53;256.73;;;;;;;5.47;61.66;99706.72;4989105;28;20112;-57
2022/03/26 00:30:51;;;;;;;519.57;296.13;;;;;;;5.55;61.55;99719.56;4985895;28;20041;-57
2022/03/26 00:33:17;;;;;;;490.70;246.37;;;;;;;5.42;61.34;99703.22;4992818;28;20395;-56
2022/03/26 00:35:43;;;;;;;506.57;272.10;;;;;;;6.02;59.45;99720.44;4993115;28;20183;-58
2022/03/26 00:38:08;;;;;;;505.70;273.13;;;;;;;5.94;58.85;99703.34;4988577;28;20153;-57
2022/03/26 00:40:34;;;;;;;507.13;275.40;;;;;;;5.99;59.10;99718.69;4989161;28;20121;-56
2022/03/26 00:43:00;;;;;;;500.80;282.53;;;;;;;5.98;59.40;99722.09;4992757;28;20034;-57
2022/03/26 00:45:27;;;;;;;512.50;286.37;;;;;;;5.81;59.80;99714.09;4992993;28;20390;-57
2022/03/26 00:47:52;;;;;;;481.23;234.53;;;;;;;5.72;59.95;99718.19;4988929;28;20130;-56
2022/03/26 00:50:18;;;;;;;475.77;224.10;;;;;;;5.65;60.81;99713.81;4988458;28;20512;-56
2022/03/26 00:52:44;;;;;;;500.47;262.20;;;;;;;5.48;61.96;99716.91;4992931;28;20140;-58
2022/03/26 00:55:10;;;;;;;486.67;243.10;;;;;;;5.40;62.49;99717.59;4991623;28;20030;-56
2022/03/26 00:57:36;;;;;;;486.23;241.63;;;;;;;5.24;63.92;99707.97;4987133;28;20173;-56
2022/03/26 01:00:03;;;;;;;493.90;252.17;;;;;;;5.14;66.13;99712.00;4990389;28;20042;-57
2022/03/26 01:02:29;;;;;;;498.13;276.83;;;;;;;4.98;68.25;99697.28;4992120;28;20042;-57
2022/03/26 01:04:54;;;;;;;467.93;273.83;;;;;;;4.94;68.45;99710.75;4990981;28;20033;-57
2022/03/26 01:07:20;;;;;;;508.00;269.80;;;;;;;4.82;68.60;99690.16;4988954;28;20088;-57
2022/03/26 01:09:45;;;;;;;485.03;265.97;;;;;;;4.74;69.81;99691.69;4991109;28;20037;-57
2022/03/26 01:12:12;;;;;;;486.20;272.60;;;;;;;4.69;71.36;99705.97;4990468;28;20046;-57
2022/03/26 01:14:37;;;;;;;488.83;237.50;;;;;;;4.58;72.26;99713.38;4989046;28;20442;-57
2022/03/26 01:17:03;;;;;;;501.40;261.80;;;;;;;4.44;72.42;99690.22;4989076;28;20474;-57
2022/03/26 01:19:28;;;;;;;500.73;253.57;;;;;;;4.49;72.70;99716.56;4991194;28;20060;-57
2022/03/26 01:21:54;;;;;;;498.83;243.60;;;;;;;4.34;72.84;99700.09;4993310;28;20084;-57
2022/03/26 01:24:19;;;;;;;471.33;263.83;;;;;;;4.27;74.18;99721.97;4990251;28;20559;-56
2022/03/26 01:26:45;;;;;;;502.30;267.30;;;;;;;4.13;74.56;99716.56;4988357;28;20045;-57
2022/03/26 01:29:10;;;;;;;481.50;267.00;;;;;;;3.97;75.49;99717.00;4989715;28;20038;-56
2022/03/26 01:31:37;;;;;;;471.43;268.63;;;;;;;4.04;76.67;99725.63;4988431;28;20092;-58
2022/03/26 01:34:02;;;;;;;483.77;268.73;;;;;;;3.90;78.62;99724.44;4989483;28;20117;-58
2022/03/26 01:36:28;;;;;;;479.53;267.80;;;;;;;3.84;79.84;99719.19;4985715;28;20038;-57
2022/03/26 01:38:54;;;;;;;458.47;264.77;;;;;;;3.71;81.61;99701.94;4988958;28;20058;-55
2022/03/26 01:41:20;;;;;;;472.67;263.53;;;;;;;3.79;82.56;99719.06;4991147;28;20129;-55
2022/03/26 01:43:46;;;;;;;428.07;258.97;;;;;;;3.82;82.25;99718.31;4988563;28;20178;-54
2022/03/26 01:46:12;;;;;;;419.90;252.53;;;;;;;3.72;82.37;99716.34;4988185;28;20120;-57
2022/03/26 01:48:39;;;;;;;374.70;252.10;;;;;;;3.56;82.25;99700.75;4989168;28;20487;-53
2022/03/26 01:51:14;;;;;;;404.83;252.23;;;;;;;3.60;82.87;99717.75;4990510;28;20057;-55
2022/03/26 01:53:46;;;;;;;419.67;257.25;;;;;;;3.45;84.04;99702.13;4990046;28;20062;-55
2022/03/26 01:56:13;;;;;;;429.00;249.23;;;;;;;3.45;83.90;99688.59;4987070;28;20091;-54
2022/03/26 01:58:38;;;;;;;421.17;257.37;;;;;;;3.50;83.07;99703.13;4988538;28;20428;-55
2022/03/26 02:01:04;;;;;;;433.10;247.40;;;;;;;3.43;83.06;99702.94;4987349;28;20030;-53
2022/03/26 02:03:29;;;;;;;385.30;236.70;;;;;;;3.50;84.75;99717.47;4988198;28;20041;-55
2022/03/26 02:05:55;;;;;;;443.67;254.57;;;;;;;4.00;79.65;99711.13;4988908;28;20037;-55
2022/03/26 02:08:21;;;;;;;418.63;243.43;;;;;;;3.86;77.58;99699.81;4989507;28;20415;-54
2022/03/26 02:10:46;;;;;;;462.33;249.43;;;;;;;3.78;78.36;99691.16;4989257;28;20053;-52
2022/03/26 02:13:12;;;;;;;452.93;242.87;;;;;;;3.82;78.65;99703.09;4988229;28;20444;-54
2022/03/26 02:15:37;;;;;;;475.33;226.13;;;;;;;3.90;78.83;99711.75;4992840;28;20389;-55
2022/03/26 02:18:03;;;;;;;401.77;237.20;;;;;;;3.83;78.10;99690.44;4992523;28;20488;-55
2022/03/26 02:20:30;;;;;;;453.20;243.40;;;;;;;3.71;77.75;99682.53;4989210;28;20089;-54
2022/03/26 02:22:56;;;;;;;478.93;228.07;;;;;;;4.00;77.32;99701.84;4986149;28;20395;-55
2022/03/26 02:25:22;;;;;;;476.00;242.60;;;;;;;4.27;74.13;99690.63;4987684;28;20065;-56
2022/03/26 02:27:47;;;;;;;495.63;241.97;;;;;;;4.34;73.58;99698.41;4989585;28;20044;-55
2022/03/26 02:30:13;;;;;;;466.87;235.90;;;;;;;4.32;72.55;99702.63;4987130;28;20065;-54
2022/03/26 02:32:39;;;;;;;464.80;233.93;;;;;;;4.07;73.59;99687.66;4986533;28;20093;-53
2022/03/26 02:35:05;;;;;;;442.80;246.53;;;;;;;4.06;75.27;99713.84;4987775;28;20442;-54
2022/03/26 02:37:32;;;;;;;431.50;245.57;;;;;;;3.92;76.19;99697.41;4990861;28;20062;-55
2022/03/26 02:39:58;;;;;;;425.03;256.20;;;;;;;3.92;76.96;99715.16;4986513;28;20487;-55
2022/03/26 02:42:24;;;;;;;439.90;252.47;;;;;;;3.80;78.11;99717.41;4985809;28;20026;-57
2022/03/26 02:44:50;;;;;;;421.47;259.63;;;;;;;3.82;79.37;99711.53;4986753;28;20044;-58
2022/03/26 02:47:15;;;;;;;465.87;248.23;;;;;;;3.63;79.54;99696.69;4991035;28;20042;-58
2022/03/26 02:49:41;;;;;;;463.70;250.27;;;;;;;3.65;80.17;99715.31;4986879;28;20229;-57
2022/03/26 02:52:07;;;;;;;487.20;245.73;;;;;;;3.50;81.07;99703.13;4985921;28;20417;-57
2022/03/26 02:54:33;;;;;;;488.60;223.97;;;;;;;3.52;82.99;99716.69;4991655;28;20476;-57
2022/03/26 02:56:58;;;;;;;481.73;234.60;;;;;;;3.68;81.42;99717.97;4989945;28;20038;-57
2022/03/26 02:59:23;;;;;;;493.63;240.97;;;;;;;3.94;77.81;99716.94;4987142;28;20462;-57
2022/03/26 03:01:51;;;;;;;467.23;239.53;;;;;;;3.96;76.61;99712.75;4987827;28;20579;-57
2022/03/26 03:04:16;;;;;;;449.83;231.43;;;;;;;3.91;76.50;99716.84;4990361;28;20106;-57
2022/03/26 03:06:42;;;;;;;454.07;236.60;;;;;;;3.60;77.34;99706.75;4988223;28;20040;-56
2022/03/26 03:09:08;;;;;;;468.77;234.97;;;;;;;3.57;79.57;99722.72;4987187;28;20808;-57
2022/03/26 03:11:35;;;;;;;483.57;215.87;;;;;;;3.42;81.55;99719.81;4986901;28;20110;-58
2022/03/26 03:14:02;;;;;;;491.33;226.93;;;;;;;3.21;83.24;99694.75;4989423;28;20170;-57
2022/03/26 03:16:27;;;;;;;495.97;234.97;;;;;;;3.21;84.91;99717.56;4988240;28;20061;-57
2022/03/26 03:18:53;;;;;;;493.93;239.40;;;;;;;3.11;86.31;99713.03;4986970;28;20033;-57
2022/03/26 03:21:18;;;;;;;495.00;230.33;;;;;;;3.01;87.48;99705.97;4988170;28;20492;-57
2022/03/26 03:23:44;;;;;;;467.23;238.87;;;;;;;3.03;88.35;99691.69;4988870;28;20401;-57
2022/03/26 03:26:10;;;;;;;499.00;225.93;;;;;;;3.19;87.85;99706.50;4987063;28;20036;-58
2022/03/26 03:28:36;;;;;;;477.30;196.37;;;;;;;3.42;85.76;99697.00;4987943;28;20061;-58
2022/03/26 03:31:02;;;;;;;486.40;205.97;;;;;;;3.81;80.57;99676.00;4986830;28;20034;-57
2022/03/26 03:33:27;;;;;;;480.17;221.50;;;;;;;3.97;79.42;99693.31;4985132;28;20049;-58
2022/03/26 03:35:53;;;;;;;486.33;219.87;;;;;;;3.90;77.86;99674.56;4985510;28;20490;-58
2022/03/26 03:38:19;;;;;;;491.10;226.83;;;;;;;3.94;77.94;99685.63;4989265;28;20423;-58
2022/03/26 03:40:44;;;;;;;440.33;219.80;;;;;;;3.99;78.01;99691.66;4991635;28;20041;-58
2022/03/26 03:43:10;;;;;;;464.87;223.73;;;;;;;3.95;78.43;99689.88;4993070;28;20694;-58
2022/03/26 03:45:35;;;;;;;407.27;225.43;;;;;;;3.72;78.74;99673.25;4988834;28;20507;-58
2022/03/26 03:48:01;;;;;;;451.93;219.53;;;;;;;3.64;79.45;99689.13;4988179;28;20506;-58
2022/03/26 03:50:26;;;;;;;420.13;210.93;;;;;;;3.53;80.84;99692.19;4990579;28;20032;-57
2022/03/26 03:52:52;;;;;;;478.50;215.93;;;;;;;3.39;82.20;99685.94;4991927;28;21027;-58
2022/03/26 03:55:18;;;;;;;483.80;227.67;;;;;;;3.28;83.76;99687.28;5004282;28;20030;-59
2022/03/26 03:57:44;;;;;;;476.53;223.20;;;;;;;3.04;85.06;99667.22;4988283;28;20478;-58
2022/03/26 04:00:14;;;;;;;491.83;218.47;;;;;;;3.14;86.28;99686.94;4991498;28;20053;-58
2022/03/26 04:02:41;;;;;;;490.27;227.67;;;;;;;3.14;86.90;99682.72;4991546;28;20038;-59
2022/03/26 04:05:09;;;;;;;494.57;222.97;;;;;;;3.08;87.24;99690.16;4988568;28;20029;-59
2022/03/26 04:07:42;;;;;;;475.30;231.97;;;;;;;2.84;88.99;99658.22;4987237;28;20038;-58
2022/03/26 04:10:09;;;;;;;475.27;230.33;;;;;;;2.92;88.86;99677.03;4989906;28;20041;-60
2022/03/26 04:12:39;;;;;;;446.87;231.07;;;;;;;3.20;88.21;99699.75;4988718;28;20379;-57
2022/03/26 04:15:06;;;;;;;454.63;235.97;;;;;;;3.50;82.25;99682.84;4987943;28;20886;-57
2022/03/26 04:17:32;;;;;;;501.20;225.10;;;;;;;3.50;81.20;99685.38;4984961;28;20798;-63
2022/03/26 04:20:02;;;;;;;365.43;230.73;;;;;;;3.42;82.81;99704.59;4987037;28;20030;-57
2022/03/26 04:22:28;;;;;;;391.83;231.03;;;;;;;3.20;84.49;99692.16;4987094;28;20044;-59
2022/03/26 04:24:53;;;;;;;448.23;235.43;;;;;;;3.12;85.96;99704.63;4987422;28;20462;-58
2022/03/26 04:27:19;;;;;;;411.73;223.93;;;;;;;2.97;86.88;99706.72;4988948;28;20403;-58
2022/03/26 04:29:45;;;;;;;368.27;228.20;;;;;;;2.81;88.92;99698.63;4989512;28;20129;-59
2022/03/26 04:32:10;;;;;;;419.50;224.77;;;;;;;2.72;90.49;99696.69;4987998;28;20056;-58
2022/03/26 04:34:37;;;;;;;371.83;215.03;;;;;;;2.85;89.41;99698.78;4988128;28;20037;-58
2022/03/26 04:37:03;;;;;;;371.73;227.07;;;;;;;3.20;85.85;99702.28;4987703;28;20034;-58
2022/03/26 04:39:29;;;;;;;362.33;209.20;;;;;;;3.21;83.57;99706.56;4990115;28;20044;-58
2022/03/26 04:41:54;;;;;;;389.10;223.50;;;;;;;3.13;83.39;99696.22;4987203;28;20041;-58
2022/03/26 04:44:20;;;;;;;364.00;215.83;;;;;;;3.16;83.92;99721.63;4986148;28;20048;-58
2022/03/26 04:46:45;;;;;;;359.47;206.40;;;;;;;2.97;85.20;99703.34;4988390;28;20034;-58
2022/03/26 04:49:10;;;;;;;482.13;204.73;;;;;;;2.98;87.21;99728.69;4990676;28;20038;-59
2022/03/26 04:51:36;;;;;;;488.60;215.30;;;;;;;2.96;88.68;99730.34;4985705;28;21602;-59
2022/03/26 04:54:02;;;;;;;474.30;230.40;;;;;;;2.90;89.74;99734.34;4985396;28;20458;-58
2022/03/26 04:56:27;;;;;;;478.10;215.17;;;;;;;2.81;89.40;99732.41;5004839;28;20038;-58
2022/03/26 04:58:55;;;;;;;469.17;226.20;;;;;;;2.84;90.18;99736.72;4987964;28;20034;-58
2022/03/26 05:01:22;;;;;;;462.77;211.43;;;;;;;2.73;90.03;99717.00;4988297;28;20049;-61
2022/03/26 05:03:48;;;;;;;444.87;219.63;;;;;;;2.67;90.10;99715.97;4990175;28;20034;-59
2022/03/26 05:06:13;;;;;;;433.37;224.50;;;;;;;2.71;91.75;99733.84;4989026;28;20499;-58
2022/03/26 05:08:39;;;;;;;485.03;212.57;;;;;;;2.71;92.00;99733.84;4990653;28;20056;-60
2022/03/26 05:11:05;;;;;;;469.87;215.40;;;;;;;2.86;92.05;99740.16;4988460;28;20065;-58
2022/03/26 05:13:31;;;;;;;454.67;213.57;;;;;;;2.87;91.27;99736.81;4989508;28;20384;-59
2022/03/26 05:15:56;;;;;;;437.33;206.67;;;;;;;2.84;91.28;99724.94;4992688;28;20387;-59
2022/03/26 05:18:22;;;;;;;403.57;217.60;;;;;;;2.93;91.25;99725.16;4991450;28;20432;-59
2022/03/26 05:20:47;;;;;;;394.83;224.40;;;;;;;3.15;90.32;99737.63;4988197;28;20365;-58
2022/03/26 05:23:13;;;;;;;374.93;203.53;;;;;;;3.20;89.87;99730.16;4990724;28;20472;-59
2022/03/26 05:25:38;;;;;;;409.10;220.33;;;;;;;3.40;89.13;99730.69;4993420;28;20448;-59
2022/03/26 05:28:04;;;;;;;401.73;227.80;;;;;;;3.67;85.67;99714.56;4991981;28;20120;-60
2022/03/26 05:30:29;;;;;;;406.63;224.73;;;;;;;3.78;83.43;99697.06;4987920;28;20030;-59
2022/03/26 05:32:55;;;;;;;400.30;229.20;;;;;;;4.06;82.46;99726.53;4990845;28;20084;-58
2022/03/26 05:35:21;;;;;;;409.27;229.93;;;;;;;4.18;81.09;99723.41;4993738;28;20042;-58
2022/03/26 05:37:47;;;;;;;408.50;233.87;;;;;;;4.09;81.05;99703.75;4990968;28;20037;-57
2022/03/26 05:40:17;;;;;;;407.33;243.00;;;;;;;4.66;76.37;99734.72;4988975;28;20038;-58
2022/03/26 05:42:44;;;;;;;448.33;239.83;;;;;;;4.84;73.35;99716.44;4991686;28;20030;-57
2022/03/26 05:45:10;;;;;;;446.70;237.03;;;;;;;5.05;71.70;99725.38;4991931;28;20048;-59
2022/03/26 05:47:37;;;;;;;457.90;249.93;;;;;;;5.23;71.08;99732.53;4989432;28;20437;-58
2022/03/26 05:50:08;;;;;;;420.87;251.83;;;;;;;5.47;67.91;99735.53;4989641;28;20034;-58
2022/03/26 05:52:34;;;;;;;426.07;268.67;;;;;;;5.57;65.82;99726.38;4992339;28;20349;-59
2022/03/26 05:54:59;;;;;;;410.77;265.60;;;;;;;5.88;64.76;99750.75;4992022;28;20096;-59
2022/03/26 05:57:26;;;;;;;395.80;272.20;;;;;;;5.91;64.26;99744.00;4988881;28;20466;-60
2022/03/26 05:59:51;;;;;;;480.97;265.00;;;;;;;5.91;63.53;99749.09;4988547;28;20045;-58
2022/03/26 06:02:17;;;;;;;409.20;283.83;;;;;;;6.06;63.48;99765.47;4993394;28;20041;-58
2022/03/26 06:04:43;;;;;;;491.03;282.43;;;;;;;6.10;62.98;99773.19;4991154;28;20516;-58
2022/03/26 06:07:10;;;;;;;473.87;291.90;;;;;;;6.13;63.46;99778.31;4988138;28;20079;-58
2022/03/26 06:09:36;;;;;;;497.30;298.73;;;;;;;6.04;64.43;99780.72;4988224;28;20560;-58
2022/03/26 06:12:03;;;;;;;463.67;305.97;;;;;;;6.19;63.77;99790.31;4991521;28;20431;-57
2022/03/26 06:14:28;;;;;;;442.27;299.33;;;;;;;6.12;62.90;99757.94;4991065;28;20026;-58
2022/03/26 06:16:54;;;;;;;443.97;306.23;;;;;;;6.40;61.94;99788.97;4989465;28;20081;-59
2022/03/26 06:19:19;;;;;;;427.57;307.37;;;;;;;6.55;61.34;99788.34;4988891;28;20109;-59
2022/03/26 06:21:45;;;;;;;433.87;318.70;;;;;;;6.62;62.31;99779.97;4995009;28;20661;-58
2022/03/26 06:24:11;;;;;;;422.27;327.73;;;;;;;6.65;62.04;99771.53;4993203;28;20030;-61
2022/03/26 06:26:39;;;;;;;417.50;334.20;;;;;;;6.87;62.02;99784.59;4989051;28;20440;-58
2022/03/26 06:29:05;;;;;;;434.60;338.73;;;;;;;7.07;62.19;99792.53;5003253;28;20064;-59
2022/03/26 06:31:30;;;;;;;416.03;344.53;;;;;;;7.24;62.02;99801.25;4993284;28;20030;-58
2022/03/26 06:33:56;;;;;;;434.17;357.27;;;;;;;7.34;60.47;99790.31;4990628;28;20029;-59
2022/03/26 06:36:22;;;;;;;425.60;353.10;;;;;;;7.45;59.57;99795.56;4986847;28;20530;-58
2022/03/26 06:38:50;;;;;;;517.33;320.23;;;;;;;7.56;58.87;99785.47;4993599;28;20120;-58
2022/03/26 06:41:16;;;;;;;493.40;362.67;;;;;;;7.61;58.13;99784.69;4991912;28;20033;-58
2022/03/26 06:43:42;;;;;;;474.60;367.27;;;;;;;7.82;58.31;99786.63;4989326;28;20131;-58
2022/03/26 06:46:08;;;;;;;452.27;380.77;;;;;;;8.02;57.84;99804.72;4986747;28;20038;-58
2022/03/26 06:48:35;;;;;;;480.53;383.83;;;;;;;8.13;57.25;99803.09;4990536;28;20364;-59
2022/03/26 06:51:01;;;;;;;450.73;397.93;;;;;;;8.28;56.20;99801.53;4990752;28;20029;-58
2022/03/26 06:53:28;;;;;;;481.80;409.47;;;;;;;8.37;57.63;99812.72;4988478;28;20045;-59
2022/03/26 06:55:53;;;;;;;483.50;406.60;;;;;;;8.41;57.17;99804.22;4988757;28;20034;-59
2022/03/26 06:58:18;;;;;;;533.33;396.83;;;;;;;8.44;56.78;99815.38;4990566;28;20519;-59
2022/03/26 07:00:44;;;;;;;543.50;415.60;;;;;;;8.55;57.41;99806.06;4990283;28;20042;-59
2022/03/26 07:03:09;;;;;;;546.27;420.63;;;;;;;8.41;58.80;99810.22;4987444;28;20102;-59
2022/03/26 07:05:35;;;;;;;551.90;439.87;;;;;;;8.56;56.30;99818.03;4987602;28;20665;-59
2022/03/26 07:08:00;;;;;;;547.30;452.03;;;;;;;8.62;55.86;99805.25;4993230;28;20050;-59
2022/03/26 07:10:26;;;;;;;548.63;441.23;;;;;;;8.88;53.35;99808.00;4991564;28;20600;-55
2022/03/26 07:12:51;;;;;;;548.03;439.43;;;;;;;9.03;52.60;99804.72;4990437;28;20125;-56
2022/03/26 07:15:17;;;;;;;523.70;384.30;;;;;;;9.26;53.91;99815.91;4993944;28;20468;-57
2022/03/26 07:17:42;;;;;;;543.00;448.63;;;;;;;9.43;54.10;99811.72;4995408;28;20450;-54
2022/03/26 07:20:08;;;;;;;565.13;497.00;;;;;;;9.62;52.80;99805.84;4994969;28;20686;-58
2022/03/26 07:22:35;;;;;;;566.90;503.27;;;;;;;9.78;51.78;99809.31;4995585;28;20427;-57
2022/03/26 07:25:01;;;;;;;576.13;514.17;;;;;;;9.82;51.51;99812.72;4993304;28;20041;-56
2022/03/26 07:27:34;;;;;;;588.10;524.80;;;;;;;9.99;50.01;99806.81;4995047;28;20034;-56
2022/03/26 07:30:00;;;;;;;585.20;522.00;;;;;;;10.15;48.74;99807.72;4991712;28;20081;-57
2022/03/26 07:32:26;;;;;;;591.80;528.70;;;;;;;10.22;48.98;99803.47;4990213;28;20117;-57
2022/03/26 07:34:53;;;;;;;594.40;531.03;;;;;;;10.27;49.50;99809.47;4995254;28;20047;-56
2022/03/26 07:37:18;;;;;;;608.07;544.47;;;;;;;10.25;49.29;99806.88;4995593;28;20030;-56
2022/03/26 07:39:43;;;;;;;617.00;553.33;;;;;;;10.18;49.10;99809.44;4993276;28;20052;-55
2022/03/26 07:42:09;;;;;;;622.83;558.97;;;;;;;10.32;48.95;99794.91;4993692;28;20037;-55
2022/03/26 07:44:35;;;;;;;626.57;562.53;;;;;;;10.58;48.53;99800.91;4996643;28;20049;-56
2022/03/26 07:47:00;;;;;;;633.40;569.20;;;;;;;10.75;47.66;99806.03;4995552;28;20030;-57
2022/03/26 07:49:26;;;;;;;645.80;581.10;;;;;;;10.84;47.98;99803.44;4991493;28;20048;-55
2022/03/26 07:51:51;;;;;;;644.07;579.80;;;;;;;10.99;47.73;99806.84;4992832;28;20127;-56
2022/03/26 07:54:17;;;;;;;577.80;516.30;;;;;;;11.18;47.27;99809.38;4989984;28;20041;-54
2022/03/26 07:56:42;;;;;;;634.87;571.60;;;;;;;11.06;46.00;99794.00;4996798;28;20034;-56
2022/03/26 07:59:08;;;;;;;652.73;588.43;;;;;;;11.02;46.26;99785.47;4991064;28;20482;-55
2022/03/26 08:01:34;;;;;;;672.03;607.47;;;;;;;11.39;46.95;99802.47;4992024;28;20038;-56
2022/03/26 08:03:59;;;;;;;700.47;633.97;;;;;;;11.51;47.06;99793.00;4994148;28;20065;-55
2022/03/26 08:06:25;;;;;;;715.57;648.80;;;;;;;11.72;46.48;99806.63;5008292;28;20484;-57
2022/03/26 08:08:50;;;;;;;706.70;640.37;;;;;;;11.80;44.60;99815.16;4992579;28;20062;-56
2022/03/26 08:11:16;;;;;;;710.17;643.90;;;;;;;11.97;44.64;99798.78;4991880;28;20026;-56
2022/03/26 08:13:42;;;;;;;721.17;654.60;;;;;;;12.06;45.14;99801.31;4994689;28;20041;-56
2022/03/26 08:16:08;;;;;;;737.07;670.43;;;;;;;12.29;44.62;99809.75;4995489;28;20332;-57
2022/03/26 08:18:34;;;;;;;735.43;668.70;;;;;;;12.10;44.65;99814.13;4992395;28;20046;-55
2022/03/26 08:21:00;;;;;;;745.33;678.47;;;;;;;12.24;43.93;99803.75;4993824;28;20026;-57
2022/03/26 08:23:25;;;;;;;752.77;685.63;;;;;;;12.36;42.73;99799.38;4995003;28;20037;-56
2022/03/26 08:28:36;;;;;;;751.47;684.30;;;;;;;12.47;43.81;99808.75;4994000;28;20053;-57
2022/03/26 08:31:02;;;;;;;747.07;679.80;;;;;;;12.45;43.45;99805.31;4994858;28;20033;-57
2022/03/26 08:33:27;;;;;;;758.50;691.13;;;;;;;12.71;43.34;99798.25;4994863;28;21013;-58
2022/03/26 08:35:53;;;;;;;762.87;695.63;;;;;;;12.88;43.34;99793.81;4992851;28;20034;-58
2022/03/26 08:38:18;;;;;;;761.37;694.40;;;;;;;13.09;42.48;99816.75;4992925;28;20508;-56
2022/03/26 08:40:44;;;;;;;765.30;698.20;;;;;;;13.03;41.76;99800.50;4993044;28;20077;-57
2022/03/26 08:43:10;;;;;;;764.97;697.80;;;;;;;13.25;41.53;99809.75;4993619;28;20326;-57
2022/03/26 08:45:36;;;;;;;769.67;702.30;;;;;;;13.36;41.93;99813.09;4992276;28;20447;-58
2022/03/26 08:48:01;;;;;;;776.63;709.33;;;;;;;13.45;41.60;99810.38;4991379;28;20554;-55
2022/03/26 08:50:27;;;;;;;783.00;715.33;;;;;;;13.61;40.89;99808.47;4994884;28;20594;-58
2022/03/26 08:52:52;;;;;;;778.03;711.03;;;;;;;13.53;41.25;99795.69;4993766;28;20029;-58
2022/03/26 08:55:18;;;;;;;792.40;724.43;;;;;;;13.68;40.58;99812.69;4995492;28;20500;-58
2022/03/26 08:57:44;;;;;;;797.50;729.73;;;;;;;13.63;40.76;99786.97;4994213;28;20038;-58
2022/03/26 09:00:12;;;;;;;805.53;737.37;;;;;;;13.96;39.98;99806.28;4997044;28;20049;-58
2022/03/26 09:02:39;;;;;;;810.27;741.73;;;;;;;14.02;39.86;99811.38;4995807;28;20029;-57
2022/03/26 09:05:08;;;;;;;811.27;743.10;;;;;;;13.97;40.03;99812.28;4990247;28;20069;-56
2022/03/26 09:07:34;;;;;;;805.17;737.07;;;;;;;14.14;40.38;99807.75;4991920;28;20033;-56
2022/03/26 09:09:59;;;;;;;813.40;745.43;;;;;;;14.01;39.76;99811.38;4989365;28;20787;-61
2022/03/26 09:12:25;;;;;;;815.00;746.77;;;;;;;14.23;40.16;99810.19;4991025;28;20072;-58
2022/03/26 09:14:50;;;;;;;826.70;757.80;;;;;;;14.37;40.44;99803.16;4992034;28;20026;-56
2022/03/26 09:17:16;;;;;;;784.17;717.43;;;;;;;14.56;40.26;99796.81;4993566;28;20033;-56
2022/03/26 09:19:41;;;;;;;777.43;711.13;;;;;;;14.63;40.03;99801.00;4999349;28;20068;-62
2022/03/26 09:22:07;;;;;;;32.33;20.20;;;;;;;14.73;39.69;99798.25;4989353;28;20046;-51
2022/03/26 09:24:32;;;;;;;34.40;22.73;;;;;;;14.84;39.86;99797.19;4984552;28;20460;-59
2022/03/26 09:26:58;;;;;;;34.03;23.95;;;;;;;14.80;38.13;99799.84;4996994;28;20022;-64
2022/03/26 09:29:23;;;;;;;32.78;21.75;;;;;;;14.78;39.18;99799.03;4996268;28;20034;-63
2022/03/26 09:31:49;;;;;;;38.47;22.02;;;;;;;14.80;38.97;99797.28;4992425;28;20149;-56
2022/03/26 09:34:14;;;;;;;32.35;22.13;;;;;;;14.81;38.67;99789.50;4992657;28;20465;-60
2022/03/26 09:36:40;;;;;;;33.95;21.75;;;;;;;15.01;38.34;99796.91;4986525;28;20103;-61
2022/03/26 09:39:05;;;;;;;32.40;21.45;;;;;;;15.14;38.60;99794.94;5002171;28;20045;-62
2022/03/26 09:41:32;;;;;;;34.47;22.67;;;;;;;15.19;38.35;99788.78;4993569;28;20061;-60
2022/03/26 09:43:58;;;;;;;32.95;21.15;;;;;;;15.16;37.48;99782.84;4990114;28;20032;-60
2022/03/26 09:46:25;;;;;;;35.80;22.60;;;;;;;15.13;37.77;99778.59;4992745;28;20034;-61
2022/03/26 09:48:51;;;;;;;35.05;21.85;;;;;;;15.28;37.90;99777.41;4989233;28;20037;-61
2022/03/26 09:51:20;;;;;;;35.13;24.63;;;;;;;15.43;37.82;99772.81;5000335;28;20435;-59
2022/03/26 09:53:49;;;;;;;33.08;21.00;;;;;;;15.58;38.81;99773.41;4994810;28;20076;-59
2022/03/26 09:56:15;;;;;;;34.17;22.83;;;;;;;15.45;38.61;99770.19;4992688;28;20038;-59
2022/03/26 09:58:41;;;;;;;37.45;23.48;;;;;;;15.56;38.16;99747.59;4990646;28;20510;-59
2022/03/26 10:01:06;;;;;;;36.88;22.10;;;;;;;15.67;36.28;99770.63;4986868;28;20030;-59
2022/03/26 10:03:33;;;;;;;36.10;22.42;;;;;;;15.58;36.43;99757.88;4988995;28;20038;-60
2022/03/26 10:06:03;;;;;;;33.17;21.45;;;;;;;15.60;37.52;99764.75;4991180;28;20034;-60
2022/03/26 10:08:28;;;;;;;33.63;21.02;;;;;;;15.84;37.42;99756.44;4988873;28;20061;-60
2022/03/26 10:10:55;;;;;;;40.38;22.20;;;;;;;15.77;36.62;99754.91;4991911;28;20510;-60
2022/03/26 10:13:40;;;;;;;30.67;20.55;;;;;;;15.96;35.87;99752.72;4993789;28;20065;-60
2022/03/26 10:16:11;;;;;;;27.13;19.23;;;;;;;16.01;35.94;99756.06;4991074;28;20029;-60
2022/03/26 10:18:44;;;;;;;33.85;22.50;;;;;;;16.00;35.46;99759.53;4991364;28;20121;-60
2022/03/26 10:21:14;;;;;;;33.33;21.27;;;;;;;15.92;35.47;99758.84;4993812;28;20077;-61
2022/03/26 10:23:45;;;;;;;31.30;20.95;;;;;;;15.81;35.02;99746.19;4992401;28;20531;-59
2022/03/26 10:26:11;;;;;;;36.28;22.40;;;;;;;15.86;35.75;99751.25;4989540;28;20590;-60
2022/03/26 10:28:40;;;;;;;37.85;23.30;;;;;;;15.66;36.08;99751.69;4991847;28;20520;-60
2022/03/26 10:34:15;;;;;;;32.13;23.33;;;;;;;15.90;35.40;99745.13;4990973;28;20048;-60
2022/03/26 10:36:45;;;;;;;35.33;22.85;;;;;;;16.02;35.21;99744.00;4993852;28;20041;-64
2022/03/26 10:39:30;;;;;;;32.47;22.55;;;;;;;15.92;35.66;99735.59;4996437;28;20093;-60
2022/03/26 10:41:56;;;;;;;34.08;21.77;;;;;;;16.05;35.03;99713.72;5009655;28;20088;-60
2022/03/26 10:44:28;;;;;;;33.90;21.67;;;;;;;16.27;35.21;99727.00;5011586;28;20081;-60
2022/03/26 10:46:56;;;;;;;34.45;22.85;;;;;;;16.37;34.58;99721.56;5017588;28;20064;-60
2022/03/26 10:49:32;;;;;;;33.20;23.00;;;;;;;16.09;34.67;99707.59;5015638;28;20106;-60
2022/03/26 10:52:05;;;;;;;29.65;20.65;;;;;;;16.08;34.74;99705.06;5014234;28;20073;-60
2022/03/26 10:54:32;;;;;;;34.58;22.05;;;;;;;16.21;34.55;99717.63;5015574;28;20539;-60
2022/03/26 10:56:59;;;;;;;37.90;24.58;;;;;;;16.13;34.50;99691.09;5016728;28;20041;-60
2022/03/26 10:59:26;;;;;;;35.03;21.85;;;;;;;16.13;34.62;99688.50;5012711;28;20066;-60
2022/03/26 11:01:52;;;;;;;35.53;21.95;;;;;;;16.26;34.80;99700.25;5014154;28;20033;-59
2022/03/26 11:04:18;;;;;;;35.10;22.67;;;;;;;16.41;34.41;99704.22;5016906;28;20110;-59
2022/03/26 11:06:45;;;;;;;32.60;22.92;;;;;;;16.41;33.84;99692.13;5015120;28;20060;-60
2022/03/26 11:09:11;;;;;;;31.33;20.92;;;;;;;16.40;34.10;99686.97;5012213;28;20060;-62
2022/03/26 11:11:37;;;;;;;31.60;22.08;;;;;;;16.52;34.32;99694.44;5014242;28;20029;-60